Time;durP1;ratioP1;P1;durP2;ratioP2;P2;SDS_P1;SDS_P2;PMS_P1;PMS_P2;Temp;Humidity;BMP_temperature;BMP_pressure;BME280_temperature;BME280_humidity;BME280_pressure;Samples;Min_cycle;Max_cycle;Signal;HPM_P1;HPM_P2
2023/10/30 00:00:37;;;;;;;2.87;1.20;;;;;;;;;;4997252;28;20746;-87
2023/10/30 00:03:03;;;;;;;1.33;0.73;;;;;;;;;;4994318;28;20219;-86
2023/10/30 00:05:33;;;;;;;2.70;1.00;;;;;;;;;;5001416;28;20260;-83
2023/10/30 00:07:59;;;;;;;4.00;0.90;;;;;;;;;;5018426;28;20212;-87
2023/10/30 00:10:24;;;;;;;2.27;1.00;;;;;;;;;;5001653;28;20216;-84
2023/10/30 00:12:52;;;;;;;3.03;1.00;;;;;;;;;;5016121;28;20300;-87
2023/10/30 00:15:18;;;;;;;3.57;1.20;;;;;;;;;;4993999;28;20227;-84
2023/10/30 00:17:43;;;;;;;2.27;1.07;;;;;;;;;;4984653;28;20263;-84
2023/10/30 00:20:11;;;;;;;1.83;1.00;;;;;;;;;;4999798;28;20212;-83
2023/10/30 00:22:37;;;;;;;2.27;1.00;;;;;;;;;;5001272;28;20278;-85
2023/10/30 00:25:02;;;;;;;2.70;0.90;;;;;;;;;;4987701;28;20603;-83
2023/10/30 00:27:28;;;;;;;2.33;0.90;;;;;;;;;;4996603;28;20279;-85
2023/10/30 00:29:56;;;;;;;4.40;1.00;;;;;;;;;;5003790;28;20247;-86
2023/10/30 00:32:22;;;;;;;1.93;1.00;;;;;;;;;;5000002;28;20219;-86
2023/10/30 00:34:48;;;;;;;2.90;1.00;;;;;;;;;;5002631;28;20283;-84
2023/10/30 00:37:16;;;;;;;2.67;1.00;;;;;;;;;;4984672;28;20226;-85
2023/10/30 00:39:41;;;;;;;2.80;0.90;;;;;;;;;;4997282;28;20715;-83
2023/10/30 00:42:12;;;;;;;1.87;0.87;;;;;;;;;;5014019;28;20209;-85
2023/10/30 00:44:38;;;;;;;4.00;1.20;;;;;;;;;;4998330;28;20284;-85
2023/10/30 00:47:04;;;;;;;4.33;1.20;;;;;;;;;;4985360;28;20212;-86
2023/10/30 00:49:33;;;;;;;2.53;1.00;;;;;;;;;;4985235;28;20252;-86
2023/10/30 00:51:58;;;;;;;3.10;1.10;;;;;;;;;;4981783;28;20290;-86
2023/10/30 00:54:26;;;;;;;1.50;0.80;;;;;;;;;;4981804;28;20276;-85
2023/10/30 00:56:52;;;;;;;1.43;0.77;;;;;;;;;;4994940;28;20224;-84
2023/10/30 00:59:19;;;;;;;2.10;0.93;;;;;;;;;;5005135;28;20269;-84
2023/10/30 01:01:48;;;;;;;2.30;0.90;;;;;;;;;;5013181;28;20235;-86
2023/10/30 01:04:20;;;;;;;2.13;1.07;;;;;;;;;;4999294;28;20758;-85
2023/10/30 01:06:46;;;;;;;2.90;1.00;;;;;;;;;;5003473;28;20229;-85
2023/10/30 01:09:14;;;;;;;6.17;1.40;;;;;;;;;;4999418;28;20274;-86
2023/10/30 01:11:40;;;;;;;3.97;1.33;;;;;;;;;;5001508;28;20211;-84
2023/10/30 01:14:11;;;;;;;3.37;1.03;;;;;;;;;;4980917;28;20224;-83
2023/10/30 01:16:39;;;;;;;3.87;1.20;;;;;;;;;;4993909;28;20258;-87
2023/10/30 01:19:05;;;;;;;2.33;1.23;;;;;;;;;;4995181;28;20260;-85
2023/10/30 01:21:33;;;;;;;2.90;1.20;;;;;;;;;;4999029;28;20645;-85
2023/10/30 01:24:01;;;;;;;2.23;0.87;;;;;;;;;;5026698;28;20216;-85
2023/10/30 01:26:26;;;;;;;4.10;1.40;;;;;;;;;;5000047;28;20224;-88
2023/10/30 01:28:54;;;;;;;1.87;0.87;;;;;;;;;;4996867;28;20216;-86
2023/10/30 01:31:27;;;;;;;2.20;1.03;;;;;;;;;;4998715;28;20231;-85
2023/10/30 01:33:56;;;;;;;2.63;1.07;;;;;;;;;;4986454;28;20286;-85
2023/10/30 01:36:24;;;;;;;3.80;1.23;;;;;;;;;;4992542;28;20225;-84
2023/10/30 01:38:51;;;;;;;2.53;1.33;;;;;;;;;;4981106;28;20259;-84
2023/10/30 01:41:19;;;;;;;4.10;1.40;;;;;;;;;;4981233;28;20588;-87
2023/10/30 01:43:45;;;;;;;6.40;1.20;;;;;;;;;;4989388;28;20728;-84
2023/10/30 01:46:10;;;;;;;3.13;1.33;;;;;;;;;;5026412;28;20230;-84
2023/10/30 01:48:36;;;;;;;3.43;1.10;;;;;;;;;;5035723;28;20678;-83
2023/10/30 01:51:03;;;;;;;3.87;1.20;;;;;;;;;;5013887;28;20259;-83
2023/10/30 01:53:29;;;;;;;3.57;1.30;;;;;;;;;;5013990;28;20229;-83
2023/10/30 01:55:59;;;;;;;4.60;1.50;;;;;;;;;;5020769;28;20212;-86
2023/10/30 01:58:28;;;;;;;3.13;1.40;;;;;;;;;;5016226;28;20228;-84
2023/10/30 02:00:53;;;;;;;3.57;1.33;;;;;;;;;;5015511;28;20258;-84
2023/10/30 02:03:19;;;;;;;2.20;0.80;;;;;;;;;;5019545;28;20259;-85
2023/10/30 02:05:47;;;;;;;6.93;1.60;;;;;;;;;;5015321;28;20235;-83
2023/10/30 02:08:12;;;;;;;3.03;1.10;;;;;;;;;;5006729;28;20238;-86
2023/10/30 02:10:39;;;;;;;3.93;1.30;;;;;;;;;;5000879;28;20225;-87
2023/10/30 02:13:06;;;;;;;3.97;1.20;;;;;;;;;;4995446;28;20290;-84
2023/10/30 02:15:32;;;;;;;7.90;1.30;;;;;;;;;;5022332;28;20217;-86
2023/10/30 02:17:57;;;;;;;2.80;1.27;;;;;;;;;;5000300;28;20282;-85
2023/10/30 02:20:27;;;;;;;4.97;1.37;;;;;;;;;;5010965;28;20224;-88
2023/10/30 02:22:55;;;;;;;3.53;1.40;;;;;;;;;;4996211;28;20225;-86
2023/10/30 02:25:23;;;;;;;4.17;1.30;;;;;;;;;;5001543;28;20558;-86
2023/10/30 02:27:50;;;;;;;3.77;1.27;;;;;;;;;;4997218;28;20228;-85
2023/10/30 02:30:16;;;;;;;2.83;1.07;;;;;;;;;;5001660;28;20315;-85
2023/10/30 02:32:46;;;;;;;3.20;1.30;;;;;;;;;;5002051;28;20462;-83
2023/10/30 02:35:15;;;;;;;3.23;1.10;;;;;;;;;;5010155;28;20223;-82
2023/10/30 02:37:40;;;;;;;2.00;1.10;;;;;;;;;;4998001;28;20216;-84
2023/10/30 02:40:13;;;;;;;4.13;1.30;;;;;;;;;;5008752;28;20216;-83
2023/10/30 02:42:43;;;;;;;2.40;1.27;;;;;;;;;;4998255;28;20224;-82
2023/10/30 02:45:11;;;;;;;3.07;1.47;;;;;;;;;;5002490;28;20216;-85
2023/10/30 02:47:37;;;;;;;3.30;1.30;;;;;;;;;;4995794;28;20221;-85
2023/10/30 02:50:03;;;;;;;5.00;1.37;;;;;;;;;;4995969;28;20216;-83
2023/10/30 02:52:29;;;;;;;3.17;1.10;;;;;;;;;;4985349;28;20225;-85
2023/10/30 02:54:57;;;;;;;5.57;1.20;;;;;;;;;;5000452;28;20224;-85
2023/10/30 02:57:23;;;;;;;3.97;1.70;;;;;;;;;;5007868;28;20220;-88
2023/10/30 02:59:51;;;;;;;3.30;1.40;;;;;;;;;;4997645;28;21052;-83
2023/10/30 03:02:16;;;;;;;2.10;1.27;;;;;;;;;;4985540;28;20220;-88
2023/10/30 03:04:45;;;;;;;4.00;1.40;;;;;;;;;;4985937;28;20228;-87
2023/10/30 03:07:11;;;;;;;4.03;1.33;;;;;;;;;;4997733;28;20299;-84
2023/10/30 03:09:37;;;;;;;7.23;1.50;;;;;;;;;;5013556;28;20222;-85
2023/10/30 03:12:06;;;;;;;2.30;1.20;;;;;;;;;;4998879;28;20299;-83
2023/10/30 03:14:36;;;;;;;4.70;1.50;;;;;;;;;;4995372;28;20232;-86
2023/10/30 03:17:02;;;;;;;5.67;1.70;;;;;;;;;;4987403;28;20236;-84
2023/10/30 03:19:30;;;;;;;5.13;1.33;;;;;;;;;;4977170;28;20232;-84
2023/10/30 03:21:56;;;;;;;4.67;1.50;;;;;;;;;;4998959;28;20836;-85
2023/10/30 03:24:25;;;;;;;5.00;1.53;;;;;;;;;;5006538;28;20213;-84
2023/10/30 03:26:53;;;;;;;5.13;1.50;;;;;;;;;;4999045;28;20297;-84
2023/10/30 03:29:24;;;;;;;4.57;1.40;;;;;;;;;;4978905;28;20259;-85
2023/10/30 03:31:52;;;;;;;2.57;1.37;;;;;;;;;;4983748;28;20231;-83
2023/10/30 03:34:19;;;;;;;6.87;1.50;;;;;;;;;;4998609;28;20647;-86
2023/10/30 03:36:45;;;;;;;3.53;1.47;;;;;;;;;;4997322;28;20228;-84
2023/10/30 03:39:14;;;;;;;5.13;1.40;;;;;;;;;;4997161;28;20223;-83
2023/10/30 03:41:39;;;;;;;5.70;1.70;;;;;;;;;;4996762;28;20216;-83
2023/10/30 03:44:08;;;;;;;5.07;1.27;;;;;;;;;;4997274;28;20229;-82
2023/10/30 03:46:34;;;;;;;8.10;1.50;;;;;;;;;;4998716;28;20309;-85
2023/10/30 03:49:02;;;;;;;4.17;1.37;;;;;;;;;;5000194;28;20225;-83
2023/10/30 03:51:27;;;;;;;3.57;1.43;;;;;;;;;;5004229;28;20220;-84
2023/10/30 03:53:54;;;;;;;3.43;1.60;;;;;;;;;;4996558;28;20307;-83
2023/10/30 03:56:22;;;;;;;4.63;1.37;;;;;;;;;;5016856;28;20231;-85
2023/10/30 03:58:47;;;;;;;5.20;1.50;;;;;;;;;;4997708;28;20258;-87
2023/10/30 04:05:00;;;;;;;4.87;1.50;;;;;;;;;;5020757;28;20235;-83
2023/10/30 04:07:25;;;;;;;3.43;1.63;;;;;;;;;;5012711;28;20220;-84
2023/10/30 04:09:54;;;;;;;2.83;1.33;;;;;;;;;;5000532;28;20225;-85
2023/10/30 04:12:22;;;;;;;5.00;1.40;;;;;;;;;;5002492;28;20213;-84
2023/10/30 04:14:48;;;;;;;3.40;1.37;;;;;;;;;;4997683;28;20228;-84
2023/10/30 04:17:18;;;;;;;4.50;1.57;;;;;;;;;;5001417;28;20885;-84
2023/10/30 04:19:46;;;;;;;7.87;1.60;;;;;;;;;;4997634;28;20305;-84
2023/10/30 04:22:12;;;;;;;4.83;1.50;;;;;;;;;;5004550;28;20227;-88
2023/10/30 04:24:37;;;;;;;6.97;2.00;;;;;;;;;;4988452;28;20254;-85
2023/10/30 04:27:05;;;;;;;4.40;1.60;;;;;;;;;;5002494;28;20223;-84
2023/10/30 04:29:33;;;;;;;5.30;2.00;;;;;;;;;;5014830;28;20216;-84
2023/10/30 04:31:59;;;;;;;6.53;1.70;;;;;;;;;;5012597;28;20228;-85
2023/10/30 04:34:25;;;;;;;4.77;1.77;;;;;;;;;;5002982;28;20220;-86
2023/10/30 04:36:50;;;;;;;6.13;1.70;;;;;;;;;;4997459;28;20260;-85
2023/10/30 04:39:19;;;;;;;3.47;1.50;;;;;;;;;;5007021;28;20228;-84
2023/10/30 04:41:44;;;;;;;3.33;1.43;;;;;;;;;;5017275;28;20232;-83
2023/10/30 04:44:12;;;;;;;7.97;1.90;;;;;;;;;;5000404;28;20228;-84
2023/10/30 04:46:38;;;;;;;4.43;1.60;;;;;;;;;;4994933;28;20290;-84
2023/10/30 04:49:03;;;;;;;3.57;1.47;;;;;;;;;;4996809;28;20323;-84
2023/10/30 04:51:31;;;;;;;2.80;1.37;;;;;;;;;;4992314;28;20224;-83
2023/10/30 04:53:59;;;;;;;4.57;1.70;;;;;;;;;;5000076;28;20601;-83
2023/10/30 04:56:24;;;;;;;5.13;1.43;;;;;;;;;;5002190;28;20223;-83
2023/10/30 04:58:52;;;;;;;4.77;1.57;;;;;;;;;;4987167;28;20243;-86
2023/10/30 05:01:18;;;;;;;6.57;1.60;;;;;;;;;;4995207;28;20283;-87
2023/10/30 05:03:43;;;;;;;5.40;1.67;;;;;;;;;;5004420;28;20262;-84
2023/10/30 05:06:09;;;;;;;3.87;1.37;;;;;;;;;;5011969;28;20253;-83
2023/10/30 05:08:36;;;;;;;4.90;1.57;;;;;;;;;;5000273;28;20252;-87
2023/10/30 05:11:06;;;;;;;5.37;1.43;;;;;;;;;;4988858;28;20224;-84
2023/10/30 05:13:32;;;;;;;3.53;1.40;;;;;;;;;;4990329;28;20220;-84
2023/10/30 05:15:58;;;;;;;4.30;1.50;;;;;;;;;;4985006;28;20225;-84
2023/10/30 05:18:30;;;;;;;5.00;1.80;;;;;;;;;;5000766;28;20239;-83
2023/10/30 05:20:55;;;;;;;4.30;1.93;;;;;;;;;;5006694;28;20795;-83
2023/10/30 05:23:24;;;;;;;7.17;2.20;;;;;;;;;;5010351;28;20240;-86
2023/10/30 05:25:50;;;;;;;5.40;1.87;;;;;;;;;;4987503;28;20213;-86
2023/10/30 05:28:18;;;;;;;6.40;1.50;;;;;;;;;;5009596;28;20235;-84
2023/10/30 05:30:45;;;;;;;3.00;1.60;;;;;;;;;;5007033;28;20240;-86
2023/10/30 05:33:11;;;;;;;4.33;1.60;;;;;;;;;;5022688;28;20282;-88
2023/10/30 05:35:41;;;;;;;4.53;1.83;;;;;;;;;;5000770;28;20251;-85
2023/10/30 05:38:07;;;;;;;2.60;1.20;;;;;;;;;;4999041;28;20229;-88
2023/10/30 05:40:37;;;;;;;6.00;2.00;;;;;;;;;;4986224;28;20273;-87
2023/10/30 05:43:03;;;;;;;3.27;1.23;;;;;;;;;;4991891;28;20234;-83
2023/10/30 05:45:31;;;;;;;3.53;1.73;;;;;;;;;;4995797;28;20279;-86
2023/10/30 05:47:56;;;;;;;5.23;1.77;;;;;;;;;;4997845;28;20620;-85
2023/10/30 05:50:22;;;;;;;3.70;1.50;;;;;;;;;;4986890;28;20217;-86
2023/10/30 05:52:47;;;;;;;3.53;1.50;;;;;;;;;;5021307;28;20687;-84
2023/10/30 05:55:18;;;;;;;5.53;1.80;;;;;;;;;;5010714;28;20224;-86
2023/10/30 05:57:45;;;;;;;4.20;1.50;;;;;;;;;;4983473;28;20331;-87
2023/10/30 06:00:13;;;;;;;4.73;1.70;;;;;;;;;;5004962;28;20274;-85
2023/10/30 06:02:45;;;;;;;4.87;1.70;;;;;;;;;;5003945;28;20232;-87
2023/10/30 06:05:12;;;;;;;3.43;1.53;;;;;;;;;;5002929;28;20228;-86
2023/10/30 06:07:41;;;;;;;3.20;1.40;;;;;;;;;;5020073;28;20595;-86
2023/10/30 06:10:09;;;;;;;5.40;1.70;;;;;;;;;;5002510;28;20215;-87
2023/10/30 06:12:34;;;;;;;8.43;1.90;;;;;;;;;;5000595;28;20220;-86
2023/10/30 06:15:02;;;;;;;4.00;1.60;;;;;;;;;;5002936;28;20216;-86
2023/10/30 06:17:28;;;;;;;7.53;1.83;;;;;;;;;;5015562;28;20224;-85
2023/10/30 06:19:55;;;;;;;3.83;1.57;;;;;;;;;;5017120;28;20224;-88
2023/10/30 06:22:21;;;;;;;3.67;1.50;;;;;;;;;;5003200;28;20230;-87
2023/10/30 06:24:47;;;;;;;2.93;1.47;;;;;;;;;;5017174;28;20255;-86
2023/10/30 06:27:15;;;;;;;6.97;2.37;;;;;;;;;;5002048;28;20255;-88
2023/10/30 06:33:31;;;;;;;6.80;2.30;;;;;;;;;;5042315;28;20284;-84
2023/10/30 06:39:47;;;;;;;6.30;2.40;;;;;;;;;;5040793;28;20262;-85
2023/10/30 06:42:12;;;;;;;5.27;2.30;;;;;;;;;;5028357;28;20236;-86
2023/10/30 06:44:38;;;;;;;8.57;2.13;;;;;;;;;;5008681;28;20227;-86
2023/10/30 06:47:04;;;;;;;9.37;3.57;;;;;;;;;;5003711;28;20376;-85
2023/10/30 06:49:29;;;;;;;9.90;4.00;;;;;;;;;;5004201;28;20739;-85
2023/10/30 06:51:55;;;;;;;7.97;3.73;;;;;;;;;;5019944;28;20231;-86
2023/10/30 06:54:21;;;;;;;5.57;2.80;;;;;;;;;;4985900;28;20674;-84
2023/10/30 06:56:48;;;;;;;7.10;2.67;;;;;;;;;;5012168;28;20227;-85
2023/10/30 06:59:14;;;;;;;5.37;1.63;;;;;;;;;;4986528;28;20220;-86
2023/10/30 07:01:42;;;;;;;4.20;2.00;;;;;;;;;;5003362;28;20231;-86
2023/10/30 07:04:08;;;;;;;6.47;1.67;;;;;;;;;;4999885;28;20240;-86
2023/10/30 07:06:39;;;;;;;4.37;1.67;;;;;;;;;;4998750;28;20298;-87
2023/10/30 07:09:08;;;;;;;6.43;1.60;;;;;;;;;;5019066;28;20240;-85
2023/10/30 07:11:37;;;;;;;6.53;1.60;;;;;;;;;;4998762;28;20315;-86
2023/10/30 07:14:03;;;;;;;6.77;1.63;;;;;;;;;;5010857;28;20224;-87
2023/10/30 07:16:35;;;;;;;3.93;1.63;;;;;;;;;;5020167;28;20224;-86
2023/10/30 07:19:04;;;;;;;4.50;2.00;;;;;;;;;;5009028;28;20261;-86
2023/10/30 07:21:29;;;;;;;6.70;2.10;;;;;;;;;;5007636;28;20255;-83
2023/10/30 07:23:55;;;;;;;4.60;1.90;;;;;;;;;;5000832;28;20220;-83
2023/10/30 07:26:23;;;;;;;11.43;2.20;;;;;;;;;;5017551;28;20263;-86
2023/10/30 07:28:51;;;;;;;4.27;1.83;;;;;;;;;;4997445;28;20721;-82
2023/10/30 07:31:19;;;;;;;5.23;1.90;;;;;;;;;;5016063;28;20216;-85
2023/10/30 07:33:49;;;;;;;5.97;1.70;;;;;;;;;;4996701;28;21034;-85
2023/10/30 07:36:15;;;;;;;4.10;1.30;;;;;;;;;;4998920;28;20685;-86
2023/10/30 07:38:41;;;;;;;4.07;1.50;;;;;;;;;;4999347;28;20282;-87
2023/10/30 07:41:07;;;;;;;5.40;1.70;;;;;;;;;;4997349;28;20275;-85
2023/10/30 07:43:36;;;;;;;6.50;1.60;;;;;;;;;;4998366;28;20211;-86
2023/10/30 07:46:04;;;;;;;4.93;1.60;;;;;;;;;;4998857;28;20681;-84
2023/10/30 07:48:32;;;;;;;3.13;1.47;;;;;;;;;;4981390;28;20223;-85
2023/10/30 07:51:02;;;;;;;5.67;1.83;;;;;;;;;;4998755;28;20225;-85
2023/10/30 07:53:31;;;;;;;6.73;1.40;;;;;;;;;;5000551;28;20216;-86
2023/10/30 07:55:59;;;;;;;5.83;1.90;;;;;;;;;;5001483;28;20211;-86
2023/10/30 07:58:26;;;;;;;5.77;1.73;;;;;;;;;;5009064;28;20239;-87
2023/10/30 08:00:52;;;;;;;4.93;1.73;;;;;;;;;;4979612;28;20208;-86
2023/10/30 08:03:25;;;;;;;6.00;1.90;;;;;;;;;;4998218;28;20220;-85
2023/10/30 08:05:50;;;;;;;5.30;1.80;;;;;;;;;;4998136;28;20227;-86
2023/10/30 08:08:17;;;;;;;4.83;1.80;;;;;;;;;;5000511;28;20208;-86
2023/10/30 08:10:45;;;;;;;5.47;1.80;;;;;;;;;;5006549;28;20669;-85
2023/10/30 08:13:11;;;;;;;3.73;1.60;;;;;;;;;;5008062;28;20231;-87
2023/10/30 08:15:41;;;;;;;4.03;1.63;;;;;;;;;;5022740;28;20228;-85
2023/10/30 08:18:09;;;;;;;4.77;1.40;;;;;;;;;;5021761;28;20242;-87
2023/10/30 08:20:37;;;;;;;6.60;1.60;;;;;;;;;;5032382;28;20196;-88
2023/10/30 08:23:02;;;;;;;5.00;1.73;;;;;;;;;;5003106;28;20235;-84
2023/10/30 08:25:30;;;;;;;6.23;1.80;;;;;;;;;;5019274;28;20204;-86
2023/10/30 08:27:59;;;;;;;5.07;1.53;;;;;;;;;;5035144;28;20220;-89
2023/10/30 08:30:27;;;;;;;4.30;1.33;;;;;;;;;;4997748;28;20238;-86
2023/10/30 08:32:53;;;;;;;3.43;1.20;;;;;;;;;;5003473;28;20797;-87
2023/10/30 08:35:19;;;;;;;4.97;1.90;;;;;;;;;;4985852;28;20223;-86
2023/10/30 08:37:44;;;;;;;4.77;2.60;;;;;;;;;;5004318;28;20224;-88
2023/10/30 08:40:10;;;;;;;6.03;4.23;;;;;;;;;;4988724;28;20219;-86
2023/10/30 08:42:38;;;;;;;7.20;1.80;;;;;;;;;;5000260;28;20234;-88
2023/10/30 08:45:06;;;;;;;4.67;1.50;;;;;;;;;;5013860;28;20242;-89
2023/10/30 08:47:32;;;;;;;4.67;1.50;;;;;;;;;;5016621;28;20220;-87
2023/10/30 08:49:57;;;;;;;3.33;1.30;;;;;;;;;;4984973;28;20215;-86
2023/10/30 08:52:25;;;;;;;7.30;1.83;;;;;;;;;;4998180;28;21316;-88
2023/10/30 08:54:51;;;;;;;3.83;1.53;;;;;;;;;;5000997;28;20212;-87
2023/10/30 08:57:19;;;;;;;3.23;1.40;;;;;;;;;;5000830;28;20225;-86
2023/10/30 08:59:45;;;;;;;7.37;1.77;;;;;;;;;;5001362;28;20224;-87
2023/10/30 09:02:11;;;;;;;4.27;1.90;;;;;;;;;;5014578;28;20204;-87
2023/10/30 09:04:36;;;;;;;3.63;1.40;;;;;;;;;;5020169;28;20227;-87
2023/10/30 09:07:03;;;;;;;3.57;1.73;;;;;;;;;;4999254;28;20223;-86
2023/10/30 09:09:28;;;;;;;4.87;1.53;;;;;;;;;;4996164;28;20295;-87
2023/10/30 09:11:57;;;;;;;6.13;1.57;;;;;;;;;;4997040;28;20227;-86
2023/10/30 09:14:30;;;;;;;3.93;1.50;;;;;;;;;;4989586;28;20230;-86
2023/10/30 09:16:58;;;;;;;16.63;2.40;;;;;;;;;;4981064;28;20263;-87
2023/10/30 09:19:24;;;;;;;6.10;1.73;;;;;;;;;;4987554;28;20237;-87
2023/10/30 09:21:52;;;;;;;5.60;1.93;;;;;;;;;;5001095;28;20212;-85
2023/10/30 09:24:17;;;;;;;3.93;1.93;;;;;;;;;;5011435;28;20223;-87
2023/10/30 09:26:45;;;;;;;4.37;2.33;;;;;;;;;;5018084;28;20230;-86
2023/10/30 09:29:16;;;;;;;5.10;1.63;;;;;;;;;;5015839;28;20216;-86
2023/10/30 09:31:41;;;;;;;5.50;1.90;;;;;;;;;;5003892;28;20256;-89
2023/10/30 09:34:07;;;;;;;3.20;1.90;;;;;;;;;;4997085;28;20226;-89
2023/10/30 09:36:35;;;;;;;5.33;2.33;;;;;;;;;;5000262;28;20256;-86
2023/10/30 09:39:00;;;;;;;3.47;2.13;;;;;;;;;;5018680;28;20246;-84
2023/10/30 09:41:26;;;;;;;5.17;2.63;;;;;;;;;;5001284;28;20694;-84
2023/10/30 09:43:53;;;;;;;4.90;2.23;;;;;;;;;;4999028;28;20272;-88
2023/10/30 09:46:27;;;;;;;6.67;2.30;;;;;;;;;;4989734;28;20231;-85
2023/10/30 09:48:53;;;;;;;2.93;1.80;;;;;;;;;;5004605;28;20231;-83
2023/10/30 09:51:19;;;;;;;3.40;1.30;;;;;;;;;;5014085;28;20290;-86
2023/10/30 09:53:48;;;;;;;4.37;1.87;;;;;;;;;;5020170;28;20216;-86
2023/10/30 09:56:16;;;;;;;12.47;3.37;;;;;;;;;;5001091;28;20215;-83
2023/10/30 09:58:42;;;;;;;3.42;1.80;;;;;;;;;;5017817;28;20327;-85
2023/10/30 10:01:10;;;;;;;8.93;2.42;;;;;;;;;;4986886;28;20236;-86
2023/10/30 10:03:40;;;;;;;4.67;1.60;;;;;;;;;;5002887;28;20280;-86
2023/10/30 10:06:06;;;;;;;5.72;2.65;;;;;;;;;;4998957;28;20232;-88
2023/10/30 10:08:31;;;;;;;9.07;2.80;;;;;;;;;;4995956;28;20232;-85
2023/10/30 10:11:00;;;;;;;5.85;1.92;;;;;;;;;;5017870;28;20676;-87
2023/10/30 10:13:31;;;;;;;4.50;1.90;;;;;;;;;;5000188;28;20630;-87
2023/10/30 10:16:05;;;;;;;3.33;1.58;;;;;;;;;;5016630;28;20222;-87
2023/10/30 10:18:37;;;;;;;4.20;1.70;;;;;;;;;;4999874;28;20229;-87
2023/10/30 10:21:04;;;;;;;6.17;2.30;;;;;;;;;;4989933;28;20293;-87
2023/10/30 10:23:32;;;;;;;4.85;1.77;;;;;;;;;;5029211;28;20227;-87
2023/10/30 10:26:03;;;;;;;7.35;2.60;;;;;;;;;;4980873;28;20223;-88
2023/10/30 10:28:31;;;;;;;9.43;3.08;;;;;;;;;;5014822;28;20220;-89
2023/10/30 10:30:57;;;;;;;4.25;2.10;;;;;;;;;;5015993;28;20674;-86
2023/10/30 10:33:24;;;;;;;4.40;2.38;;;;;;;;;;4980898;28;20220;-87
2023/10/30 10:35:56;;;;;;;3.25;2.10;;;;;;;;;;4989719;28;20224;-86
2023/10/30 10:38:24;;;;;;;5.25;1.48;;;;;;;;;;5012156;28;20224;-84
2023/10/30 10:40:50;;;;;;;2.50;1.60;;;;;;;;;;5002061;28;20216;-81
2023/10/30 10:43:18;;;;;;;5.07;1.50;;;;;;;;;;5015416;28;20225;-84
2023/10/30 10:45:45;;;;;;;4.63;1.73;;;;;;;;;;5015618;28;20289;-81
2023/10/30 10:48:13;;;;;;;3.67;1.75;;;;;;;;;;5014350;28;20220;-82
2023/10/30 10:50:40;;;;;;;3.78;1.88;;;;;;;;;;5013201;28;20324;-82
2023/10/30 10:53:06;;;;;;;5.38;1.52;;;;;;;;;;5011534;28;20281;-82
2023/10/30 10:55:34;;;;;;;5.55;1.85;;;;;;;;;;4994687;28;20762;-82
2023/10/30 10:58:10;;;;;;;7.83;1.50;;;;;;;;;;4999760;28;20240;-86
2023/10/30 11:00:40;;;;;;;5.43;1.60;;;;;;;;;;5028210;28;20253;-82
2023/10/30 11:03:07;;;;;;;8.43;1.67;;;;;;;;;;5026245;28;20246;-82
2023/10/30 11:05:35;;;;;;;4.93;1.63;;;;;;;;;;5011108;28;20250;-82
2023/10/30 11:08:41;;;;;;;3.42;1.48;;;;;;;;;;4983404;28;20221;-80
2023/10/30 11:11:37;;;;;;;2.87;1.30;;;;;;;;;;5013899;28;20212;-84
2023/10/30 11:14:32;;;;;;;3.78;1.67;;;;;;;;;;5030690;28;20228;-83
2023/10/30 11:17:05;;;;;;;5.05;1.70;;;;;;;;;;5038617;28;20231;-85
2023/10/30 11:19:37;;;;;;;4.53;1.80;;;;;;;;;;5009179;28;20254;-85
2023/10/30 11:22:02;;;;;;;4.05;1.60;;;;;;;;;;5027851;28;20233;-85
2023/10/30 11:24:41;;;;;;;4.57;1.50;;;;;;;;;;5016727;28;20238;-82
2023/10/30 11:27:25;;;;;;;7.25;1.50;;;;;;;;;;5006956;28;20228;-84
2023/10/30 11:30:07;;;;;;;4.10;1.67;;;;;;;;;;5021414;28;20220;-83
2023/10/30 11:32:51;;;;;;;4.18;1.90;;;;;;;;;;5001804;28;20232;-84
2023/10/30 11:35:21;;;;;;;3.13;1.65;;;;;;;;;;5016623;28;20227;-85
2023/10/30 11:37:47;;;;;;;4.15;1.80;;;;;;;;;;5011522;28;20221;-85
2023/10/30 11:40:14;;;;;;;6.30;2.25;;;;;;;;;;4998355;28;20235;-87
2023/10/30 11:42:41;;;;;;;4.38;1.67;;;;;;;;;;5021939;28;20250;-87
2023/10/30 11:45:22;;;;;;;6.18;1.90;;;;;;;;;;5012156;28;20311;-87
2023/10/30 11:47:56;;;;;;;4.70;1.42;;;;;;;;;;4998884;28;20236;-85
2023/10/30 11:50:27;;;;;;;3.83;1.60;;;;;;;;;;5026455;28;20228;-87
2023/10/30 11:52:52;;;;;;;4.40;1.67;;;;;;;;;;5014546;28;20230;-85
2023/10/30 11:55:24;;;;;;;4.28;1.80;;;;;;;;;;5035443;28;21330;-85
2023/10/30 11:57:49;;;;;;;6.05;1.67;;;;;;;;;;4987844;28;20223;-87
2023/10/30 12:00:15;;;;;;;3.83;1.50;;;;;;;;;;4982298;28;20219;-86
2023/10/30 12:02:41;;;;;;;3.38;1.52;;;;;;;;;;4998434;28;20216;-86
2023/10/30 12:05:07;;;;;;;2.22;1.30;;;;;;;;;;5000418;28;20224;-87
2023/10/30 12:07:35;;;;;;;5.05;1.52;;;;;;;;;;5000520;28;20224;-86
2023/10/30 12:10:04;;;;;;;6.22;1.30;;;;;;;;;;4998742;28;20212;-86
2023/10/30 12:12:30;;;;;;;4.82;1.42;;;;;;;;;;4993934;28;20736;-86
2023/10/30 12:14:59;;;;;;;2.78;1.42;;;;;;;;;;5030287;28;20213;-86
2023/10/30 12:17:25;;;;;;;2.58;1.20;;;;;;;;;;4976124;28;20297;-88
2023/10/30 12:19:51;;;;;;;3.08;1.48;;;;;;;;;;4999052;28;20234;-88
2023/10/30 12:22:19;;;;;;;6.45;1.70;;;;;;;;;;5011469;28;20220;-85
2023/10/30 12:24:50;;;;;;;3.47;1.52;;;;;;;;;;5032457;28;20716;-84
2023/10/30 12:27:22;;;;;;;3.90;1.58;;;;;;;;;;5000661;28;20223;-87
2023/10/30 12:29:52;;;;;;;8.25;1.73;;;;;;;;;;5020602;28;20247;-87
2023/10/30 12:32:17;;;;;;;4.63;1.65;;;;;;;;;;5000439;28;20281;-82
2023/10/30 12:34:45;;;;;;;3.25;1.40;;;;;;;;;;4999317;28;20783;-84
2023/10/30 12:37:23;;;;;;;4.40;1.95;;;;;;;;;;5010887;28;20216;-83
2023/10/30 12:39:59;;;;;;;5.93;1.40;;;;;;;;;;5024650;28;20221;-84
2023/10/30 12:42:26;;;;;;;3.88;1.48;;;;;;;;;;4979721;28;20227;-86
2023/10/30 12:44:51;;;;;;;4.60;1.70;;;;;;;;;;4998683;28;20637;-85
2023/10/30 12:47:19;;;;;;;2.28;1.20;;;;;;;;;;4979922;28;20223;-87
2023/10/30 12:49:47;;;;;;;3.85;1.77;;;;;;;;;;5007357;28;20235;-86
2023/10/30 12:52:13;;;;;;;4.22;1.40;;;;;;;;;;5013784;28;20213;-86
2023/10/30 12:54:39;;;;;;;2.25;1.58;;;;;;;;;;5011499;28;20220;-86
2023/10/30 12:57:05;;;;;;;3.80;1.55;;;;;;;;;;4980062;28;20225;-86
2023/10/30 12:59:32;;;;;;;4.25;1.50;;;;;;;;;;4996291;28;20247;-88
2023/10/30 13:02:03;;;;;;;3.20;1.73;;;;;;;;;;5011262;28;20901;-85
2023/10/30 13:04:30;;;;;;;2.88;1.48;;;;;;;;;;4995057;28;20840;-86
2023/10/30 13:06:56;;;;;;;4.35;1.60;;;;;;;;;;5011467;28;20224;-84
2023/10/30 13:09:26;;;;;;;2.35;1.25;;;;;;;;;;5013093;28;20232;-83
2023/10/30 13:11:54;;;;;;;2.20;1.40;;;;;;;;;;4995710;28;20613;-86
2023/10/30 13:14:20;;;;;;;4.35;1.60;;;;;;;;;;5014512;28;20216;-85
2023/10/30 13:16:45;;;;;;;4.18;1.60;;;;;;;;;;5002244;28;20230;-88
2023/10/30 13:19:11;;;;;;;5.38;1.88;;;;;;;;;;4995912;28;20226;-86
2023/10/30 13:21:39;;;;;;;4.50;1.50;;;;;;;;;;4998578;28;20855;-86
2023/10/30 13:24:04;;;;;;;6.15;1.63;;;;;;;;;;4995569;28;20219;-84
2023/10/30 13:26:32;;;;;;;3.10;1.40;;;;;;;;;;5016168;28;20220;-85
2023/10/30 13:29:00;;;;;;;4.38;1.35;;;;;;;;;;4983602;28;20259;-85
2023/10/30 13:31:30;;;;;;;3.95;1.58;;;;;;;;;;4984646;28;20258;-87
2023/10/30 13:33:58;;;;;;;4.18;1.83;;;;;;;;;;4995106;28;20228;-86
2023/10/30 13:36:30;;;;;;;3.95;1.75;;;;;;;;;;4998958;28;20216;-86
2023/10/30 13:39:00;;;;;;;3.50;1.58;;;;;;;;;;5000549;28;20243;-85
2023/10/30 13:41:28;;;;;;;2.72;1.33;;;;;;;;;;4997296;28;20211;-84
2023/10/30 13:43:53;;;;;;;2.88;1.40;;;;;;;;;;4981675;28;20631;-86
2023/10/30 13:46:23;;;;;;;3.53;1.50;;;;;;;;;;4998579;28;20231;-84
2023/10/30 13:48:54;;;;;;;3.55;1.40;;;;;;;;;;4997475;28;20232;-85
2023/10/30 13:51:23;;;;;;;4.95;1.52;;;;;;;;;;5025216;28;20746;-87
2023/10/30 13:53:50;;;;;;;2.80;1.58;;;;;;;;;;4991497;28;20229;-85
2023/10/30 13:56:16;;;;;;;2.40;1.30;;;;;;;;;;5013201;28;20220;-88
2023/10/30 13:58:41;;;;;;;3.70;2.38;;;;;;;;;;4998777;28;20300;-86
2023/10/30 14:01:08;;;;;;;3.92;1.60;;;;;;;;;;5014397;28;20248;-84
2023/10/30 14:03:38;;;;;;;3.10;1.38;;;;;;;;;;4996772;28;20211;-84
2023/10/30 14:06:06;;;;;;;5.82;1.60;;;;;;;;;;5009178;28;20228;-82
2023/10/30 14:08:32;;;;;;;1.63;1.02;;;;;;;;;;4977872;28;20303;-85
2023/10/30 14:11:02;;;;;;;5.90;3.13;;;;;;;;;;4995240;28;20212;-82
2023/10/30 14:13:27;;;;;;;4.90;1.40;;;;;;;;;;5015406;28;20228;-86
2023/10/30 14:15:56;;;;;;;2.92;1.60;;;;;;;;;;5004157;28;20595;-85
2023/10/30 14:18:21;;;;;;;2.53;1.40;;;;;;;;;;5027394;28;20212;-83
2023/10/30 14:20:47;;;;;;;3.03;1.48;;;;;;;;;;5041676;28;20240;-83
2023/10/30 14:23:13;;;;;;;5.68;1.88;;;;;;;;;;5023887;28;20268;-83
2023/10/30 14:25:38;;;;;;;3.05;1.45;;;;;;;;;;5039536;28;20224;-84
2023/10/30 14:28:04;;;;;;;2.65;1.38;;;;;;;;;;5002661;28;20267;-82
2023/10/30 14:30:32;;;;;;;3.35;1.40;;;;;;;;;;5019244;28;20228;-82
2023/10/30 14:32:59;;;;;;;4.57;1.65;;;;;;;;;;5031897;28;20196;-84
2023/10/30 14:35:27;;;;;;;3.75;1.35;;;;;;;;;;5038228;28;20219;-84
2023/10/30 14:37:57;;;;;;;2.70;1.50;;;;;;;;;;5009429;28;20223;-84
2023/10/30 14:40:23;;;;;;;4.10;1.58;;;;;;;;;;5015957;28;20216;-84
2023/10/30 14:42:48;;;;;;;3.63;1.73;;;;;;;;;;4993074;28;20704;-84
2023/10/30 14:45:18;;;;;;;3.40;1.40;;;;;;;;;;5014657;28;20218;-84
2023/10/30 14:47:48;;;;;;;7.07;1.55;;;;;;;;;;5000518;28;20220;-85
2023/10/30 14:50:14;;;;;;;4.55;1.50;;;;;;;;;;5013045;28;21355;-84
2023/10/30 14:52:42;;;;;;;7.28;1.60;;;;;;;;;;4998694;28;20212;-84
2023/10/30 14:55:08;;;;;;;2.55;1.20;;;;;;;;;;4996087;28;20250;-82
2023/10/30 14:57:38;;;;;;;5.13;1.90;;;;;;;;;;5012425;28;20239;-84